createdAt,value
2023-01-22T00:00:56.494Z,92.29
2023-01-22T00:02:59.680Z,92.91
2023-01-22T00:05:02.690Z,92.36
2023-01-22T00:07:05.687Z,92.04
2023-01-22T00:09:08.657Z,92.54
2023-01-22T00:11:12.580Z,92.07
2023-01-22T00:13:15.689Z,92.12
2023-01-22T00:15:21.121Z,92.13
2023-01-22T00:17:24.115Z,92.16
2023-01-22T00:19:27.107Z,92.38
2023-01-22T00:21:30.269Z,92.32
2023-01-22T00:23:33.908Z,92.30
2023-01-22T00:25:36.976Z,92.09
2023-01-22T00:27:41.818Z,91.96
2023-01-22T00:29:44.818Z,92.16
2023-01-22T00:31:49.223Z,91.83
2023-01-22T00:33:52.267Z,91.95
2023-01-22T00:35:55.469Z,92.04
2023-01-22T00:37:59.226Z,91.88
2023-01-22T00:40:02.261Z,91.59
2023-01-22T00:42:05.430Z,91.65
2023-01-22T00:44:08.566Z,91.41
2023-01-22T00:46:14.452Z,91.75
2023-01-22T00:48:18.787Z,91.86
2023-01-22T00:50:21.870Z,91.90
2023-01-22T00:52:24.878Z,91.79
2023-01-22T00:54:28.067Z,91.80
2023-01-22T00:56:31.121Z,91.88
2023-01-22T00:58:34.563Z,91.90
2023-01-22T01:00:37.626Z,91.97
2023-01-22T01:02:55.203Z,91.91
2023-01-22T01:05:01.829Z,91.85
2023-01-22T01:07:04.969Z,91.71
2023-01-22T01:09:08.046Z,92.03
2023-01-22T01:11:14.563Z,92.11
2023-01-22T01:13:17.564Z,91.79
2023-01-22T01:15:21.173Z,91.91
2023-01-22T01:17:24.412Z,91.96
2023-01-22T01:19:27.440Z,92.14
2023-01-22T01:21:32.393Z,91.70
2023-01-22T01:23:35.963Z,91.75
2023-01-22T01:25:42.118Z,91.38
2023-01-22T01:27:46.050Z,91.73
2023-01-22T01:29:48.983Z,91.89
2023-01-22T01:31:54.506Z,91.42
2023-01-22T01:33:57.768Z,91.57
2023-01-22T01:36:01.728Z,91.56
2023-01-22T01:38:08.021Z,91.48
2023-01-22T01:40:12.452Z,91.92
2023-01-22T01:42:15.397Z,92.16
2023-01-22T01:44:21.118Z,92.25
2023-01-22T01:46:25.517Z,91.71
2023-01-22T01:48:31.773Z,91.78
2023-01-22T01:50:34.905Z,91.92
2023-01-22T01:52:37.928Z,91.70
2023-01-22T01:54:45.190Z,91.78
2023-01-22T01:56:51.835Z,91.92
2023-01-22T01:58:56.825Z,91.87
2023-01-22T02:01:02.514Z,91.79
2023-01-22T02:03:06.580Z,91.68
2023-01-22T02:05:11.063Z,91.53
2023-01-22T02:07:14.775Z,91.43
2023-01-22T02:09:18.463Z,91.66
2023-01-22T02:11:24.208Z,91.34
2023-01-22T02:13:30.745Z,91.63
2023-01-22T02:15:35.786Z,91.49
2023-01-22T02:17:41.165Z,91.66
2023-01-22T02:19:44.899Z,91.60
2023-01-22T02:21:52.051Z,91.86
2023-01-22T02:23:56.472Z,92.01
2023-01-22T02:26:00.748Z,92.38
2023-01-22T02:28:04.664Z,92.33
2023-01-22T02:30:09.302Z,91.72
2023-01-22T02:32:13.355Z,92.55
2023-01-22T02:34:17.398Z,91.91
2023-01-22T02:36:23.137Z,92.05
2023-01-22T02:38:28.922Z,91.96
2023-01-22T02:40:32.347Z,91.61
2023-01-22T02:42:36.386Z,91.40
2023-01-22T02:44:40.124Z,91.76
2023-01-22T02:46:43.827Z,91.99
2023-01-22T02:48:48.512Z,91.69
2023-01-22T02:50:52.967Z,91.97
2023-01-22T02:52:56.519Z,91.68
2023-01-22T02:55:01.261Z,91.89
2023-01-22T02:57:05.188Z,91.91
2023-01-22T02:59:08.706Z,91.53
2023-01-22T03:01:20.805Z,91.69
2023-01-22T03:03:26.827Z,91.91
2023-01-22T03:05:31.437Z,91.79
2023-01-22T03:07:44.400Z,91.73
2023-01-22T03:09:48.760Z,91.74
2023-01-22T03:11:53.651Z,91.74
2023-01-22T03:14:20.493Z,92.03
2023-01-22T03:16:41.567Z,92.18
2023-01-22T03:19:02.754Z,92.05
2023-01-22T03:21:18.935Z,92.03
2023-01-22T03:23:22.380Z,91.82
2023-01-22T03:25:25.783Z,91.90
2023-01-22T03:27:32.518Z,92.51
2023-01-22T03:29:38.319Z,92.27
2023-01-22T03:31:48.307Z,92.46
2023-01-22T03:33:51.859Z,92.31
2023-01-22T03:35:55.473Z,92.18
2023-01-22T03:37:58.957Z,92.08
2023-01-22T03:40:02.507Z,92.05
2023-01-22T03:42:13.501Z,92.18
2023-01-22T03:44:18.619Z,92.16
2023-01-22T03:46:22.297Z,92.25
2023-01-22T03:48:30.380Z,92.65
2023-01-22T03:50:33.771Z,92.18
2023-01-22T03:52:37.601Z,92.25
2023-01-22T03:54:41.127Z,92.28
2023-01-22T03:56:46.101Z,92.22
2023-01-22T03:58:58.732Z,92.27
2023-01-22T04:01:08.219Z,92.19
2023-01-22T04:03:12.045Z,91.96
2023-01-22T04:05:17.384Z,92.16
2023-01-22T04:07:21.397Z,91.82
2023-01-22T04:09:26.878Z,91.98
2023-01-22T04:11:29.926Z,92.34
2023-01-22T04:13:34.826Z,91.98
2023-01-22T04:15:38.261Z,92.17
2023-01-22T04:17:52.341Z,92.07
2023-01-22T04:20:27.815Z,91.98
2023-01-22T04:22:36.137Z,92.31
2023-01-22T04:24:40.023Z,92.23
2023-01-22T04:26:43.406Z,91.59
2023-01-22T04:28:48.389Z,92.13
2023-01-22T04:30:53.681Z,92.07
2023-01-22T04:33:20.804Z,92.12
2023-01-22T04:35:54.682Z,92.17
2023-01-22T04:37:58.172Z,91.95
2023-01-22T04:40:01.318Z,92.13
2023-01-22T04:42:04.827Z,92.49
2023-01-22T04:44:08.995Z,92.29
2023-01-22T04:46:12.086Z,92.61
2023-01-22T04:48:15.288Z,92.59
2023-01-22T04:50:23.445Z,92.25
2023-01-22T04:52:27.347Z,91.94
2023-01-22T04:54:31.168Z,92.13
2023-01-22T04:56:34.205Z,91.90
2023-01-22T04:58:37.471Z,92.30
2023-01-22T05:00:41.988Z,92.20
2023-01-22T05:02:45.600Z,92.27
2023-01-22T05:04:48.815Z,92.19
2023-01-22T05:06:53.232Z,92.12
2023-01-22T05:08:56.515Z,92.02
2023-01-22T05:11:01.964Z,92.35
2023-01-22T05:13:12.963Z,92.12
2023-01-22T05:15:24.325Z,92.25
2023-01-22T05:17:30.258Z,92.18
2023-01-22T05:19:33.305Z,92.12
2023-01-22T05:21:36.410Z,92.04
2023-01-22T05:23:43.623Z,92.29
2023-01-22T05:25:50.301Z,92.48
2023-01-22T05:27:58.647Z,92.34
2023-01-22T05:30:25.760Z,92.58
2023-01-22T05:32:42.322Z,92.57
2023-01-22T05:34:45.747Z,92.35
2023-01-22T05:36:49.967Z,92.55
2023-01-22T05:38:57.556Z,92.65
2023-01-22T05:41:02.525Z,92.28
2023-01-22T05:43:09.454Z,92.69
2023-01-22T05:45:12.919Z,92.87
2023-01-22T05:47:45.041Z,92.86
2023-01-22T05:50:07.991Z,92.80
2023-01-22T05:52:12.431Z,92.89
2023-01-22T05:54:17.512Z,92.81
2023-01-22T05:56:21.103Z,92.76
2023-01-22T05:58:24.118Z,93.21
2023-01-22T06:00:27.402Z,92.61
2023-01-22T06:02:35.799Z,92.97
2023-01-22T06:04:38.954Z,92.65
2023-01-22T06:06:52.498Z,92.82
2023-01-22T06:08:57.653Z,92.87
2023-01-22T06:11:08.737Z,93.03
2023-01-22T06:13:11.797Z,92.74
2023-01-22T06:15:14.953Z,92.73
2023-01-22T06:17:22.789Z,92.92
2023-01-22T06:19:33.291Z,93.09
2023-01-22T06:21:36.767Z,93.09
2023-01-22T06:23:40.176Z,93.18
2023-01-22T06:25:44.950Z,92.85
2023-01-22T06:27:54.627Z,92.89
2023-01-22T06:29:57.733Z,93.67
2023-01-22T06:32:02.035Z,93.85
2023-01-22T06:34:05.725Z,93.70
2023-01-22T06:36:09.232Z,93.94
2023-01-22T06:38:13.263Z,93.65
2023-01-22T06:40:17.728Z,93.95
2023-01-22T06:42:22.596Z,93.43
2023-01-22T06:44:28.508Z,93.95
2023-01-22T06:46:31.763Z,93.86
2023-01-22T06:48:48.548Z,94.46
2023-01-22T06:50:52.896Z,94.34
2023-01-22T06:52:56.133Z,94.08
2023-01-22T06:54:59.227Z,94.04
2023-01-22T06:57:02.550Z,94.32
2023-01-22T06:59:05.896Z,94.69
2023-01-22T07:01:10.930Z,94.56
2023-01-22T07:03:14.663Z,94.31
2023-01-22T07:05:19.668Z,94.59
2023-01-22T07:07:22.683Z,94.40
2023-01-22T07:09:25.877Z,94.68
2023-01-22T07:11:29.032Z,94.77
2023-01-22T07:13:32.312Z,94.52
2023-01-22T07:15:35.418Z,94.41
2023-01-22T07:17:39.808Z,94.53
2023-01-22T07:19:42.931Z,94.26
2023-01-22T07:21:46.081Z,94.72
2023-01-22T07:23:49.333Z,94.36
2023-01-22T07:25:52.471Z,94.64
2023-01-22T07:27:59.963Z,94.60
2023-01-22T07:30:03.067Z,94.59
2023-01-22T07:32:06.844Z,94.10
2023-01-22T07:34:11.384Z,94.77
2023-01-22T07:36:14.476Z,94.22
2023-01-22T07:38:17.560Z,94.45
2023-01-22T07:40:20.991Z,94.36
2023-01-22T07:42:24.194Z,94.08
2023-01-22T07:44:27.338Z,94.42
2023-01-22T07:46:30.869Z,94.50
2023-01-22T07:48:34.609Z,94.43
2023-01-22T07:50:40.415Z,93.98
2023-01-22T07:52:43.492Z,93.99
2023-01-22T07:54:46.630Z,94.30
2023-01-22T07:56:49.664Z,94.08
2023-01-22T07:58:52.688Z,93.64
2023-01-22T08:00:55.750Z,93.88
2023-01-22T08:02:59.059Z,93.92
2023-01-22T08:05:02.177Z,94.12
2023-01-22T08:07:06.768Z,94.15
2023-01-22T08:09:10.002Z,94.09
2023-01-22T08:11:13.163Z,94.17
2023-01-22T08:13:16.469Z,94.30
2023-01-22T08:15:19.989Z,93.76
2023-01-22T08:17:23.118Z,93.96
2023-01-22T08:19:26.239Z,93.60
2023-01-22T08:21:29.306Z,93.74
2023-01-22T08:23:33.813Z,93.84
2023-01-22T08:25:37.044Z,93.97
2023-01-22T08:27:40.168Z,93.81
2023-01-22T08:29:43.333Z,93.99
2023-01-22T08:31:46.694Z,93.74
2023-01-22T08:33:49.979Z,93.86
2023-01-22T08:35:53.207Z,93.99
2023-01-22T08:37:59.424Z,93.55
2023-01-22T08:40:04.367Z,93.76
2023-01-22T08:42:07.887Z,93.23
2023-01-22T08:44:13.911Z,93.17
2023-01-22T08:46:17.156Z,92.93
2023-01-22T08:48:20.335Z,93.30
2023-01-22T08:50:23.454Z,92.93
2023-01-22T08:52:26.837Z,92.66
2023-01-22T08:54:30.050Z,92.15
2023-01-22T08:56:34.741Z,92.35
2023-01-22T08:58:37.910Z,92.64
2023-01-22T09:00:41.199Z,92.43
2023-01-22T09:02:44.402Z,92.74
2023-01-22T09:04:47.537Z,92.09
2023-01-22T09:06:50.648Z,92.36
2023-01-22T09:08:54.148Z,92.27
2023-01-22T09:10:57.419Z,92.67
2023-01-22T09:13:02.428Z,92.50
2023-01-22T09:15:06.554Z,92.49
2023-01-22T09:17:09.853Z,92.38
2023-01-22T09:19:12.987Z,92.78
2023-01-22T09:21:16.181Z,92.70
2023-01-22T09:23:19.434Z,92.39
2023-01-22T09:25:22.560Z,92.48
2023-01-22T09:27:25.769Z,92.43
2023-01-22T09:29:30.355Z,92.04
2023-01-22T09:31:34.273Z,91.23
2023-01-22T09:33:37.478Z,91.32
2023-01-22T09:35:40.551Z,91.56
2023-01-22T09:37:43.628Z,92.07
2023-01-22T09:39:49.473Z,91.10
2023-01-22T09:41:54.272Z,90.90
2023-01-22T09:44:00.597Z,91.15
2023-01-22T09:46:22.822Z,91.30
2023-01-22T09:48:37.965Z,91.15
2023-01-22T09:50:42.399Z,91.14
2023-01-22T09:52:45.751Z,91.42
2023-01-22T09:54:49.229Z,90.84
2023-01-22T09:56:54.281Z,90.76
2023-01-22T09:58:58.876Z,90.86
2023-01-22T10:01:04.476Z,90.79
2023-01-22T10:03:13.914Z,90.20
2023-01-22T10:05:22.526Z,90.60
2023-01-22T10:07:29.659Z,90.60
2023-01-22T10:09:34.299Z,90.43
2023-01-22T10:11:38.694Z,90.71
2023-01-22T10:13:42.049Z,91.65
2023-01-22T10:15:45.732Z,91.75
2023-01-22T10:17:49.433Z,90.36
2023-01-22T10:19:57.731Z,91.05
2023-01-22T10:22:02.850Z,90.61
2023-01-22T10:24:06.495Z,91.34
2023-01-22T10:26:15.803Z,90.10
2023-01-22T10:28:25.389Z,90.81
2023-01-22T10:30:30.613Z,91.76
2023-01-22T10:32:34.107Z,91.37
2023-01-22T10:34:37.996Z,90.45
2023-01-22T10:36:47.742Z,91.01
2023-01-22T10:38:50.884Z,89.53
2023-01-22T10:40:55.992Z,90.21
2023-01-22T10:43:07.473Z,89.98
2023-01-22T10:45:16.669Z,90.38
2023-01-22T10:47:22.441Z,89.97
2023-01-22T10:49:29.977Z,90.48
2023-01-22T10:51:36.305Z,90.04
2023-01-22T10:53:46.604Z,90.01
2023-01-22T10:55:54.814Z,89.75
2023-01-22T10:58:03.120Z,90.61
2023-01-22T11:00:21.993Z,90.26
2023-01-22T11:02:27.105Z,90.02
2023-01-22T11:04:31.791Z,90.73
2023-01-22T11:06:38.278Z,90.26
2023-01-22T11:08:53.955Z,90.13
2023-01-22T11:10:59.475Z,89.78
2023-01-22T11:13:08.884Z,90.49
2023-01-22T11:15:21.162Z,89.29
2023-01-22T11:17:28.795Z,90.21
2023-01-22T11:19:40.365Z,89.29
2023-01-22T11:21:46.741Z,89.56
2023-01-22T11:23:55.219Z,89.92
2023-01-22T11:26:05.256Z,89.43
2023-01-22T11:28:17.747Z,89.47
2023-01-22T11:30:45.747Z,90.45
2023-01-22T11:32:58.048Z,90.63
2023-01-22T11:35:12.632Z,90.34
2023-01-22T11:37:16.959Z,90.35
2023-01-22T11:39:39.907Z,89.80
2023-01-22T11:41:55.455Z,89.85
2023-01-22T11:44:26.077Z,89.00
2023-01-22T11:46:41.649Z,90.00
2023-01-22T11:49:02.065Z,89.77
2023-01-22T11:51:13.686Z,89.23
2023-01-22T11:53:38.847Z,89.45
2023-01-22T11:56:02.269Z,90.66
2023-01-22T11:58:10.975Z,91.24
2023-01-22T12:00:34.288Z,90.38
2023-01-22T12:02:56.118Z,89.47
2023-01-22T12:05:10.156Z,89.41
2023-01-22T12:07:40.316Z,90.31
2023-01-22T12:09:49.078Z,90.46
2023-01-22T12:12:14.292Z,89.01
2023-01-22T12:14:47.355Z,89.60
2023-01-22T12:16:54.576Z,89.50
2023-01-22T12:19:15.605Z,88.97
2023-01-22T12:21:22.772Z,89.31
2023-01-22T12:23:28.853Z,89.75
2023-01-22T12:25:37.372Z,89.35
2023-01-22T12:27:44.652Z,88.94
2023-01-22T12:29:52.511Z,89.06
2023-01-22T12:31:59.486Z,89.77
2023-01-22T12:34:06.353Z,90.18
2023-01-22T12:36:13.151Z,89.58
2023-01-22T12:38:21.298Z,90.26
2023-01-22T12:40:32.147Z,89.90
2023-01-22T12:42:39.619Z,90.63
2023-01-22T12:44:51.595Z,89.25
2023-01-22T12:47:04.898Z,89.84
2023-01-22T12:49:10.167Z,88.53
2023-01-22T12:51:25.827Z,88.77
2023-01-22T12:53:30.749Z,89.27
2023-01-22T12:55:37.379Z,89.21
2023-01-22T12:57:41.689Z,89.27
2023-01-22T12:59:48.207Z,89.65
2023-01-22T13:02:00.050Z,89.03
2023-01-22T13:04:05.502Z,87.45
2023-01-22T13:06:20.199Z,87.13
2023-01-22T13:08:39.229Z,88.68
2023-01-22T13:10:53.934Z,88.26
2023-01-22T13:12:59.011Z,88.33
2023-01-22T13:15:03.805Z,88.14
2023-01-22T13:17:18.767Z,88.51
2023-01-22T13:19:23.918Z,87.80
2023-01-22T13:21:29.178Z,88.06
2023-01-22T13:23:33.081Z,88.37
2023-01-22T13:25:36.372Z,87.88
2023-01-22T13:27:39.494Z,88.41
2023-01-22T13:29:42.795Z,88.16
2023-01-22T13:31:53.980Z,88.03
2023-01-22T13:33:59.607Z,87.16
2023-01-22T13:36:10.980Z,87.41
2023-01-22T13:38:22.239Z,88.38
2023-01-22T13:40:30.380Z,87.76
2023-01-22T13:42:45.940Z,88.28
2023-01-22T13:44:50.760Z,88.22
2023-01-22T13:46:55.409Z,87.98
2023-01-22T13:49:08.594Z,86.92
2023-01-22T13:51:18.227Z,87.36
2023-01-22T13:53:26.779Z,87.31
2023-01-22T13:55:30.825Z,87.70
2023-01-22T13:57:33.945Z,86.76
2023-01-22T13:59:37.050Z,87.70
2023-01-22T14:01:40.130Z,86.30
2023-01-22T14:03:44.579Z,86.45
2023-01-22T14:05:50.115Z,86.49
2023-01-22T14:08:04.914Z,87.00
2023-01-22T14:10:18.637Z,86.06
2023-01-22T14:12:24.308Z,86.07
2023-01-22T14:14:27.981Z,86.85
2023-01-22T14:16:40.831Z,87.02
2023-01-22T14:18:46.846Z,86.67
2023-01-22T14:20:50.229Z,86.08
2023-01-22T14:22:53.354Z,86.51
2023-01-22T14:24:56.650Z,86.36
2023-01-22T14:26:59.697Z,87.23
2023-01-22T14:29:02.806Z,86.95
2023-01-22T14:31:06.383Z,86.62
2023-01-22T14:33:12.300Z,86.81
2023-01-22T14:35:18.934Z,87.22
2023-01-22T14:37:22.639Z,86.66
2023-01-22T14:39:25.996Z,86.99
2023-01-22T14:41:29.179Z,86.64
2023-01-22T14:43:32.574Z,86.92
2023-01-22T14:45:35.887Z,86.94
2023-01-22T14:47:38.969Z,86.99
2023-01-22T14:49:42.046Z,87.12
2023-01-22T14:51:46.690Z,87.25
2023-01-22T14:53:50.388Z,87.23
2023-01-22T14:55:53.623Z,86.97
2023-01-22T14:57:57.628Z,87.31
2023-01-22T15:00:02.759Z,88.47
2023-01-22T15:02:05.806Z,88.69
2023-01-22T15:04:08.852Z,88.16
2023-01-22T15:06:11.873Z,88.67
2023-01-22T15:08:16.258Z,88.99
2023-01-22T15:10:20.292Z,89.22
2023-01-22T15:12:23.610Z,88.38
2023-01-22T15:14:27.138Z,88.22
2023-01-22T15:16:30.598Z,88.08
2023-01-22T15:18:34.599Z,88.32
2023-01-22T15:20:38.144Z,88.58
2023-01-22T15:22:41.397Z,88.46
2023-01-22T15:24:46.222Z,88.55
2023-01-22T15:26:49.410Z,87.79
2023-01-22T15:28:52.552Z,89.04
2023-01-22T15:30:57.218Z,89.31
2023-01-22T15:33:00.434Z,89.30
2023-01-22T15:35:03.473Z,88.51
2023-01-22T15:37:06.879Z,89.07
2023-01-22T15:39:10.041Z,89.21
2023-01-22T15:41:22.790Z,88.24
2023-01-22T15:43:25.826Z,88.48
2023-01-22T15:45:30.635Z,88.31
2023-01-22T15:47:34.043Z,88.48
2023-01-22T15:49:37.167Z,89.16
2023-01-22T15:51:41.190Z,88.78
2023-01-22T15:53:50.755Z,89.21
2023-01-22T15:55:53.868Z,88.83
2023-01-22T15:57:59.890Z,88.98
2023-01-22T16:00:03.772Z,88.95
2023-01-22T16:02:15.380Z,87.80
2023-01-22T16:04:18.551Z,88.01
2023-01-22T16:06:23.307Z,88.39
2023-01-22T16:08:26.380Z,89.02
2023-01-22T16:10:29.431Z,88.72
2023-01-22T16:12:32.617Z,89.12
2023-01-22T16:14:37.113Z,89.25
2023-01-22T16:16:40.507Z,89.36
2023-01-22T16:18:44.314Z,88.93
2023-01-22T16:20:47.419Z,88.97
2023-01-22T16:22:50.750Z,89.64
2023-01-22T16:24:53.907Z,90.03
2023-01-22T16:26:57.160Z,89.24
2023-01-22T16:29:01.675Z,89.50
2023-01-22T16:31:08.570Z,89.65
2023-01-22T16:33:19.151Z,90.02
2023-01-22T16:35:22.637Z,90.34
2023-01-22T16:37:25.695Z,89.87
2023-01-22T16:39:29.245Z,90.19
2023-01-22T16:41:33.312Z,89.78
2023-01-22T16:43:36.382Z,89.88
2023-01-22T16:45:39.469Z,90.25
2023-01-22T16:47:44.251Z,90.72
2023-01-22T16:49:47.364Z,90.12
2023-01-22T16:51:52.548Z,90.68
2023-01-22T16:53:55.939Z,89.50
2023-01-22T16:55:58.942Z,90.89
2023-01-22T16:58:02.150Z,90.08
2023-01-22T17:00:06.155Z,91.04
2023-01-22T17:02:14.598Z,91.23
2023-01-22T17:04:19.618Z,91.20
2023-01-22T17:06:25.797Z,91.39
2023-01-22T17:08:29.083Z,91.73
2023-01-22T17:10:32.326Z,91.19
2023-01-22T17:12:35.667Z,91.16
2023-01-22T17:14:39.425Z,91.01
2023-01-22T17:16:42.583Z,90.05
2023-01-22T17:18:45.950Z,90.53
2023-01-22T17:21:01.580Z,90.94
2023-01-22T17:23:05.242Z,90.50
2023-01-22T17:25:09.513Z,90.98
2023-01-22T17:27:18.416Z,90.63
2023-01-22T17:29:22.385Z,90.12
2023-01-22T17:31:27.028Z,90.51
2023-01-22T17:33:30.455Z,90.76
2023-01-22T17:35:33.605Z,90.44
2023-01-22T17:37:38.169Z,89.92
2023-01-22T17:39:43.081Z,91.13
2023-01-22T17:41:46.696Z,91.17
2023-01-22T17:43:52.099Z,89.89
2023-01-22T17:45:55.249Z,89.34
2023-01-22T17:48:00.032Z,90.02
2023-01-22T17:50:03.290Z,90.46
2023-01-22T17:52:09.073Z,90.45
2023-01-22T17:54:13.541Z,90.21
2023-01-22T17:56:18.499Z,90.10
2023-01-22T17:58:21.581Z,90.39
2023-01-22T18:00:24.702Z,90.09
2023-01-22T18:02:27.923Z,89.98
2023-01-22T18:04:32.276Z,90.35
2023-01-22T18:06:36.219Z,90.37
2023-01-22T18:08:40.809Z,89.41
2023-01-22T18:10:45.263Z,90.46
2023-01-22T18:12:49.190Z,89.29
2023-01-22T18:14:52.319Z,89.42
2023-01-22T18:16:55.815Z,89.60
2023-01-22T18:19:03.597Z,90.22
2023-01-22T18:21:08.268Z,90.49
2023-01-22T18:23:11.387Z,89.74
2023-01-22T18:25:14.511Z,89.55
2023-01-22T18:27:18.904Z,90.72
2023-01-22T18:29:21.958Z,90.03
2023-01-22T18:31:26.565Z,90.14
2023-01-22T18:33:30.651Z,90.49
2023-01-22T18:35:34.670Z,89.94
2023-01-22T18:37:38.317Z,90.37
2023-01-22T18:39:41.636Z,89.45
2023-01-22T18:41:46.968Z,90.24
2023-01-22T18:43:53.696Z,90.12
2023-01-22T18:45:56.842Z,89.13
2023-01-22T18:47:59.939Z,90.54
2023-01-22T18:50:03.238Z,90.47
2023-01-22T18:52:06.586Z,89.86
2023-01-22T18:54:10.147Z,90.29
2023-01-22T18:56:13.550Z,90.67
2023-01-22T18:58:27.399Z,91.07
2023-01-22T19:00:31.842Z,90.49
2023-01-22T19:02:34.990Z,90.64
2023-01-22T19:04:38.276Z,90.04
2023-01-22T19:06:44.132Z,90.34
2023-01-22T19:08:50.141Z,90.34
2023-01-22T19:10:53.550Z,89.89
2023-01-22T19:12:56.811Z,89.91
2023-01-22T19:15:00.555Z,90.36
2023-01-22T19:17:07.142Z,90.30
2023-01-22T19:19:13.661Z,89.51
2023-01-22T19:21:19.463Z,89.89
2023-01-22T19:23:22.703Z,90.50
2023-01-22T19:25:26.017Z,90.74
2023-01-22T19:27:30.725Z,91.02
2023-01-22T19:29:34.049Z,89.97
2023-01-22T19:31:38.776Z,90.84
2023-01-22T19:33:43.582Z,89.58
2023-01-22T19:35:49.515Z,89.57
2023-01-22T19:37:53.236Z,90.20
2023-01-22T19:39:56.705Z,89.96
2023-01-22T19:42:02.410Z,90.65
2023-01-22T19:44:06.307Z,90.31
2023-01-22T19:46:12.094Z,90.15
2023-01-22T19:48:15.265Z,90.19
2023-01-22T19:50:19.963Z,89.39
2023-01-22T19:52:23.062Z,90.63
2023-01-22T19:54:26.432Z,90.91
2023-01-22T19:56:31.520Z,90.88
2023-01-22T19:58:34.698Z,91.52
2023-01-22T20:00:38.233Z,90.57
2023-01-22T20:02:41.369Z,91.14
2023-01-22T20:04:44.551Z,91.31
2023-01-22T20:06:50.985Z,90.59
2023-01-22T20:08:56.377Z,90.91
2023-01-22T20:11:00.397Z,89.57
2023-01-22T20:13:03.581Z,90.83
2023-01-22T20:15:07.871Z,90.24
2023-01-22T20:17:12.907Z,89.95
2023-01-22T20:19:16.080Z,91.22
2023-01-22T20:21:20.793Z,91.00
2023-01-22T20:23:26.209Z,91.82
2023-01-22T20:25:32.097Z,91.32
2023-01-22T20:27:35.338Z,90.70
2023-01-22T20:29:39.179Z,91.36
2023-01-22T20:31:42.696Z,92.31
2023-01-22T20:33:45.872Z,91.88
2023-01-22T20:35:49.058Z,92.18
2023-01-22T20:37:52.489Z,91.38
2023-01-22T20:39:57.336Z,91.13
2023-01-22T20:42:00.763Z,92.13
2023-01-22T20:44:04.744Z,91.88
2023-01-22T20:46:10.739Z,92.08
2023-01-22T20:48:13.816Z,91.49
2023-01-22T20:50:17.532Z,91.62
2023-01-22T20:52:20.847Z,91.35
2023-01-22T20:54:24.309Z,91.46
2023-01-22T20:56:31.456Z,92.13
2023-01-22T20:58:35.312Z,92.29
2023-01-22T21:00:39.819Z,92.45
2023-01-22T21:02:42.957Z,91.97
2023-01-22T21:04:46.163Z,92.33
2023-01-22T21:06:49.246Z,91.70
2023-01-22T21:08:56.121Z,91.85
2023-01-22T21:11:00.250Z,92.58
2023-01-22T21:13:04.907Z,91.78
2023-01-22T21:15:09.850Z,92.77
2023-01-22T21:17:13.016Z,92.01
2023-01-22T21:19:18.514Z,92.81
2023-01-22T21:21:21.973Z,92.58
2023-01-22T21:23:25.243Z,92.71
2023-01-22T21:25:28.453Z,92.51
2023-01-22T21:27:31.526Z,92.05
2023-01-22T21:29:36.373Z,92.04
2023-01-22T21:31:39.835Z,92.68
2023-01-22T21:33:43.713Z,92.09
2023-01-22T21:35:49.530Z,92.13
2023-01-22T21:37:52.615Z,91.99
2023-01-22T21:39:55.823Z,92.75
2023-01-22T21:42:13.071Z,92.05
2023-01-22T21:44:35.188Z,91.95
2023-01-22T21:46:41.653Z,91.35
2023-01-22T21:48:44.800Z,92.46
2023-01-22T21:50:47.902Z,92.05
2023-01-22T21:52:54.172Z,91.93
2023-01-22T21:54:57.454Z,92.11
2023-01-22T21:57:00.821Z,92.21
2023-01-22T21:59:04.006Z,92.04
2023-01-22T22:01:07.785Z,92.76
2023-01-22T22:03:12.277Z,91.67
2023-01-22T22:05:15.583Z,91.73
2023-01-22T22:07:19.113Z,91.91
2023-01-22T22:09:24.021Z,91.71
2023-01-22T22:11:27.806Z,92.17
2023-01-22T22:13:30.951Z,92.04
2023-01-22T22:15:34.828Z,92.18
2023-01-22T22:17:37.931Z,91.27
2023-01-22T22:19:42.291Z,92.16
2023-01-22T22:21:45.782Z,91.25
2023-01-22T22:23:48.935Z,91.43
2023-01-22T22:25:52.069Z,92.32
2023-01-22T22:27:56.947Z,92.19
2023-01-22T22:29:59.969Z,91.95
2023-01-22T22:32:02.975Z,92.06
2023-01-22T22:34:06.454Z,92.25
2023-01-22T22:36:11.998Z,91.59
2023-01-22T22:38:15.497Z,91.98
2023-01-22T22:40:19.388Z,92.27
2023-01-22T22:42:22.840Z,92.02
2023-01-22T22:44:25.804Z,92.22
2023-01-22T22:46:31.103Z,92.80
2023-01-22T22:48:34.179Z,93.30
2023-01-22T22:50:40.242Z,93.50
2023-01-22T22:52:44.706Z,93.18
2023-01-22T22:54:51.026Z,93.40
2023-01-22T22:56:54.106Z,92.97
2023-01-22T22:58:57.455Z,93.37
2023-01-22T23:01:00.464Z,91.86
2023-01-22T23:03:03.552Z,90.76
2023-01-22T23:05:07.776Z,91.39
2023-01-22T23:07:21.140Z,91.90
2023-01-22T23:09:25.686Z,92.19
2023-01-22T23:11:31.011Z,92.06
2023-01-22T23:13:34.839Z,92.20
2023-01-22T23:15:37.877Z,91.67
2023-01-22T23:17:40.873Z,91.71
2023-01-22T23:19:43.868Z,92.43
2023-01-22T23:21:49.419Z,91.82
2023-01-22T23:23:53.640Z,91.50
2023-01-22T23:26:00.043Z,90.84
2023-01-22T23:28:03.064Z,91.38
2023-01-22T23:30:07.207Z,90.01
2023-01-22T23:32:10.137Z,90.71
2023-01-22T23:34:15.324Z,90.39
2023-01-22T23:36:18.540Z,90.72
2023-01-22T23:38:21.947Z,90.18
2023-01-22T23:40:25.037Z,89.69
2023-01-22T23:42:29.359Z,89.32
2023-01-22T23:44:32.316Z,90.12
2023-01-22T23:46:36.433Z,90.69
2023-01-22T23:48:39.699Z,90.73
2023-01-22T23:50:44.735Z,90.35
2023-01-22T23:52:47.772Z,89.92
2023-01-22T23:54:50.881Z,90.65
2023-01-22T23:56:54.064Z,91.08
2023-01-22T23:58:58.506Z,90.87
